ROMMA est une association bénévole à but non lucratif. Votre soutien est indispensable : ADHERER à ROMMA ou FAIRE un DON

Taninges - (74, Haute-Savoie)

Vallée du Giffre (635 m)   Longitude: 06° 35' 38" E   Latitude: 46° 06' 21" N Station romma n°98
 

Détail journalier du     <<     >>

Température Precipitation Humidité Pression Vent Dir Rafale Dir. rafale Ensol.
Heure (°C) (mm) (%) (hPa) (km/h) (km/h) (min)
01:00 16.909410121NNO5NNO0
02:00 15.909510121SE3SE0
03:00 15.3096101203SE0
04:00 15.409610121SE5SE0
05:00 15.109610111SE3SE0
06:00 14.909710111SE3SE0
07:00 14.309710121E5SE0
08:00 14.309710121E5E20
09:00 15.909710121ESE5ESE45
10:00 19.308510113O6ONO60
11:00 22.107910114SO15SO60
12:00 22.6077101110SO23SO60
13:00 24.0070101112SO24SO60
14:00 25.306310108SSO18OSO60
15:00 26.3055101011OSO24OSO60
16:00 26.905410109O23OSO60
17:00 27.105810109OSO19SO60
18:00 27.205210108O18OSO60
19:00 26.905310106O11O60
20:00 24.905910102NE8SO30
21:00 21.407010113ENE11ENE0
22:00 18.9085101103ENE0
23:00 17.0090101203E0
minuit 16.1093101203E0

Graphique du 08-08-2019

 

Serveur OMMA